調布空港の過去48時間の天気

調布空港 (Chofu)

現在時刻: 8/18 22:52 JST (8/18 13:52 UTC) 以下の時間は現地時間です。

過去48時間のMETAR気象情報
時間 風向 風速(m/s) 視程 気温(℃) 湿度(%) 気圧(hPa) 天気現象
18 17:00 4 10km以上 30 75 1001
18 16:00 3 10km以上 31 70 1000
18 15:00 北北西 2 10km以上 30 70 1000
18 14:00 南西 2 10km以上 29 74 1001
18 13:00 南南西 2 10km以上 27 89 1002
18 12:00 南西 3 10km以上 26 89 1002
18 11:00 4 10km以上 26 94 1003 弱いしゅう雨
18 10:29 南南東 5 6000m 25 94 1003 弱いしゅう雨
18 10:00 3 5000m 24 100 1004 弱いしゅう雨 もや
18 09:40 不定 1 5000m 24 100 1005 弱いしゅう雨 もや
18 09:13 不定 1 4000m 24 94 1006 弱いしゅう雨 もや
18 09:00 静穏 0 3500m 24 94 1006 しゅう雨 もや
18 08:42 北北東 2 2000m 24 94 1006 強いしゅう雨 もや
18 08:30 2 3000m 24 94 1006 しゅう雨 もや
18 08:10 不定 1 4000m 24 94 1006 弱いしゅう雨 もや
17 17:00 東南東 2 10km以上 28 74 1009
17 16:00 南東 3 10km以上 28 74 1009 弱いしゅう雨
17 15:00 北北西 2 10km以上 31 62 1008
17 14:00 北西 2 10km以上 32 59 1008
17 13:00 不定 1 10km以上 32 59 1008
17 12:00 2 10km以上 31 66 1009
17 11:00 不定 1 10km以上 28 79 1009
17 10:00 3 10km以上 26 84 1008 弱いしゅう雨
17 09:00 北北西 3 10km以上 28 70 1009 弱いしゅう雨
17 08:30 2 10km以上 29 70 1009 弱いしゅう雨
RJTF 180800Z 36007KT 9999 FEW030 30/25 Q1001
RJTF 180700Z 36006KT 330V040 9999 FEW030 31/25 Q1000
RJTF 180600Z 34004KT 320V020 9999 FEW030 SCT180 30/24 Q1000
RJTF 180500Z 22003KT 180V270 9999 FEW030 BKN180 29/24 Q1001
RJTF 180400Z 20004KT 170V250 9999 FEW020 SCT120 BKN180 27/25 Q1002
RJTF 180300Z 22005KT 180V270 9999 FEW010 SCT020 BKN030 26/24 Q1002
RJTF 180200Z 17008KT 140V200 9999 -SHRA FEW008 BKN030 BKN050 26/25 Q1003
RJTF 180129Z 16009G20KT 120V210 6000 -SHRA FEW006 SCT008 BKN030 25/24 Q1003 RMK 1ST006 4ST008 6CU030 A2964 P/FR
RJTF 180100Z 17005KT 5000 -SHRA BR FEW006 BKN008 BKN030 24/24 Q1004
RJTF 180040Z VRB01KT 5000 -SHRA BR FEW006 BKN008 BKN030 24/24 Q1005 RMK 1ST006 5ST008 6CU030 A2969
RJTF 180013Z VRB01KT 4000 -SHRA BR FEW005 BKN008 BKN015 24/23 Q1006 RMK 1ST005 6ST008 7CU015 A2971
RJTF 180000Z 00000KT 3500 SHRA BR FEW005 BKN008 BKN012 FEW012TCU 24/23 Q1006
RJTF 172342Z 03003KT 360V080 2000 +SHRA BR FEW003 BKN005 BKN012 24/23 Q1006 RMK 1ST003 5ST005 7CU012 A2972 RI++
RJTF 172330Z 35004KT 3000 SHRA BR SCT005 BKN008 BKN015 FEW015TCU 24/23 Q1006
RJTF 172310Z VRB02KT 4000 -SHRA BR FEW005 BKN008 BKN020 24/23 Q1006 RMK 2ST005 6ST008 7CU020 A2973
RJTF 170800Z 11004KT 070V140 9999 FEW020 SCT035 BKN070 28/23 Q1009
RJTF 170700Z 14005KT 100V170 9999 -SHRA FEW020 SCT030 BKN040 28/23 Q1009
RJTF 170600Z 34004KT 300V020 9999 FEW030 SCT040 BKN130 31/23 Q1008
RJTF 170500Z 31003KT 260V010 9999 FEW030 SCT130 BKN/// 32/23 Q1008
RJTF 170400Z VRB02KT 9999 FEW030 SCT130 BKN/// 32/23 Q1008
RJTF 170300Z 36004KT 270V080 9999 FEW030 BKN/// 31/24 Q1009
RJTF 170200Z VRB02KT 9999 FEW030 SCT080 BKN150 28/24 Q1009
RJTF 170100Z 35005KT 9999 -SHRA FEW035 BKN120 26/23 Q1008
RJTF 170000Z 34005KT 9999 -SHRA FEW035 SCT080 BKN120 28/22 Q1009
RJTF 162330Z 35004KT 9999 -SHRA FEW035 SCT080 BKN120 29/23 Q1009